Time;durP1;ratioP1;P1;durP2;ratioP2;P2;SDS_P1;SDS_P2;PMS_P1;PMS_P2;Temp;Humidity;BMP_temperature;BMP_pressure;BME280_temperature;BME280_humidity;BME280_pressure;Samples;Min_cycle;Max_cycle;Signal;HPM_P1;HPM_P2
2024/04/23 00:02:14;;;;;;;2.95;1.10;;;8.10;49.90;9.80;102171.00;;;;5305854;26;20726;-76
2024/04/23 00:04:42;;;;;;;1.35;0.98;;;8.00;49.90;9.80;102180.00;;;;5320815;26;20248;-77
2024/04/23 00:07:08;;;;;;;2.05;1.15;;;8.00;50.00;9.80;102172.00;;;;5310007;26;20224;-77
2024/04/23 00:09:37;;;;;;;3.25;1.30;;;8.00;49.90;9.80;102175.00;;;;5306484;26;20307;-77
2024/04/23 00:12:05;;;;;;;1.55;1.13;;;8.00;50.00;9.70;102163.00;;;;5325506;26;20236;-77
2024/04/23 00:14:34;;;;;;;1.17;1.00;;;8.00;50.20;9.70;102167.00;;;;5305279;26;20754;-78
2024/04/23 00:17:03;;;;;;;1.25;1.00;;;8.00;50.20;9.70;102166.00;;;;5306178;26;20341;-76
2024/04/23 00:19:32;;;;;;;2.67;1.40;;;8.00;50.20;9.70;102163.00;;;;5312276;26;20248;-77
2024/04/23 00:21:59;;;;;;;1.90;1.27;;;8.00;50.30;9.70;102159.00;;;;5310694;26;20284;-77
2024/04/23 00:24:28;;;;;;;2.45;1.05;;;8.00;50.30;9.70;102158.00;;;;5346282;26;20230;-78
2024/04/23 00:26:55;;;;;;;2.63;1.48;;;7.90;50.40;9.70;102158.00;;;;5322348;26;20228;-77
2024/04/23 00:29:26;;;;;;;3.70;1.50;;;7.90;50.50;9.70;102149.00;;;;5317854;26;20273;-76
2024/04/23 00:31:53;;;;;;;1.85;1.55;;;7.90;50.60;9.70;102147.00;;;;5333928;26;20336;-77
2024/04/23 00:34:22;;;;;;;2.05;1.08;;;7.90;50.60;9.70;102146.00;;;;5321919;26;20227;-77
2024/04/23 00:36:52;;;;;;;1.63;1.30;;;7.90;50.80;9.60;102138.00;;;;5352215;26;20710;-76
2024/04/23 00:39:21;;;;;;;1.63;1.25;;;7.90;50.80;9.60;102149.00;;;;5329045;26;20344;-76
2024/04/23 00:41:47;;;;;;;1.30;1.15;;;7.90;50.90;9.60;102139.00;;;;5323329;26;20232;-77
2024/04/23 00:44:16;;;;;;;1.75;1.23;;;7.90;51.50;9.60;102141.00;;;;5340653;26;20234;-76
2024/04/23 00:46:45;;;;;;;2.03;1.20;;;7.80;51.00;9.60;102136.00;;;;5315870;26;20333;-77
2024/04/23 00:49:15;;;;;;;1.88;1.27;;;7.80;51.00;9.60;102136.00;;;;5305365;26;20244;-76
2024/04/23 00:51:47;;;;;;;1.95;1.17;;;7.80;51.10;9.60;102133.00;;;;5305658;26;20239;-77
2024/04/23 00:54:17;;;;;;;2.30;1.58;;;7.80;51.00;9.60;102127.00;;;;5307912;26;20244;-77
2024/04/23 00:56:43;;;;;;;2.13;1.45;;;7.80;51.10;9.60;102132.00;;;;5310987;26;20240;-76
2024/04/23 00:59:15;;;;;;;2.28;1.50;;;7.80;51.20;9.50;102115.00;;;;5337906;26;20561;-77
2024/04/23 01:01:44;;;;;;;1.88;1.30;;;7.80;51.30;9.50;102113.00;;;;5309086;26;20232;-77
2024/04/23 01:04:13;;;;;;;2.08;1.63;;;7.80;51.30;9.50;102117.00;;;;5325769;26;20270;-77
2024/04/23 01:06:40;;;;;;;1.80;1.58;;;7.70;51.30;9.50;102126.00;;;;5321019;26;20337;-77
2024/04/23 01:09:08;;;;;;;1.90;1.33;;;7.70;51.30;9.50;102130.00;;;;5337210;26;20293;-77
2024/04/23 01:11:35;;;;;;;2.08;1.52;;;7.70;51.40;9.50;102114.00;;;;5308780;26;20232;-77
2024/04/23 01:14:04;;;;;;;2.10;1.35;;;7.70;51.50;9.50;102112.00;;;;5342348;26;20281;-77
2024/04/23 01:16:35;;;;;;;3.10;1.80;;;7.70;51.50;9.50;102113.00;;;;5349813;26;20231;-76
2024/04/23 01:19:12;;;;;;;2.55;1.45;;;7.70;51.60;9.40;102108.00;;;;5317827;26;20236;-77
2024/04/23 01:21:50;;;;;;;2.58;1.40;;;7.70;51.80;9.40;102120.00;;;;5316087;26;20244;-77
2024/04/23 01:24:32;;;;;;;2.00;1.52;;;7.70;51.80;9.40;102115.00;;;;5322754;26;20236;-77
2024/04/23 01:27:02;;;;;;;2.55;1.52;;;7.70;51.80;9.40;102111.00;;;;5330457;26;20666;-77
2024/04/23 01:29:32;;;;;;;4.70;2.78;;;7.70;51.80;9.40;102109.00;;;;5332139;26;20236;-77
2024/04/23 01:32:02;;;;;;;1.95;1.30;;;7.60;51.80;9.40;102089.00;;;;5307995;26;20337;-78
2024/04/23 01:34:33;;;;;;;2.83;1.77;;;7.60;51.80;9.40;102100.00;;;;5337111;26;20231;-77
2024/04/23 01:37:00;;;;;;;4.15;2.03;;;7.60;52.00;9.40;102095.00;;;;5333142;26;20243;-77
2024/04/23 01:39:30;;;;;;;2.83;2.03;;;7.60;52.00;9.40;102087.00;;;;5308898;26;20304;-78
2024/04/23 01:42:00;;;;;;;2.25;1.67;;;7.60;52.00;9.40;102083.00;;;;5324100;26;20256;-77
2024/04/23 01:44:30;;;;;;;2.90;2.08;;;7.60;52.10;9.40;102080.00;;;;5323104;26;20300;-78
2024/04/23 01:46:56;;;;;;;2.50;2.13;;;7.60;52.10;9.40;102088.00;;;;5325080;26;20725;-77
2024/04/23 01:49:25;;;;;;;3.35;2.15;;;7.60;52.20;9.30;102087.00;;;;5315592;26;20231;-77
2024/04/23 01:51:51;;;;;;;3.50;2.42;;;7.60;52.20;9.30;102082.00;;;;5325419;26;20231;-78
2024/04/23 01:54:20;;;;;;;3.10;2.15;;;7.60;52.30;9.30;102085.00;;;;5323503;26;20361;-77
2024/04/23 01:56:46;;;;;;;2.88;2.13;;;7.50;52.30;9.30;102081.00;;;;5333186;26;20585;-77
2024/04/23 01:59:17;;;;;;;3.03;2.20;;;7.50;52.40;9.30;102079.00;;;;5324064;26;20235;-77
2024/04/23 02:01:51;;;;;;;4.68;2.20;;;7.50;52.40;9.20;102085.00;;;;5334576;26;20309;-77
2024/04/23 02:04:22;;;;;;;3.42;2.25;;;7.50;52.50;9.30;102081.00;;;;5336775;26;20235;-77
2024/04/23 02:06:49;;;;;;;2.88;1.92;;;7.50;52.50;9.30;102080.00;;;;5312975;26;20225;-77
2024/04/23 02:09:18;;;;;;;3.67;2.50;;;7.50;52.60;9.20;102082.00;;;;5321978;26;20714;-78
2024/04/23 02:11:44;;;;;;;2.63;1.83;;;7.40;52.60;9.30;102073.00;;;;5331750;26;20232;-77
2024/04/23 02:14:13;;;;;;;4.32;1.90;;;7.40;52.60;9.20;102076.00;;;;5322836;26;20743;-78
2024/04/23 02:16:41;;;;;;;2.28;1.80;;;7.40;52.70;9.20;102076.00;;;;5330863;26;20239;-77
2024/04/23 02:19:10;;;;;;;2.30;1.73;;;7.40;52.80;9.20;102074.00;;;;5320853;26;20239;-78
2024/04/23 02:21:36;;;;;;;2.60;1.85;;;7.40;53.40;9.20;102075.00;;;;5326573;26;20237;-78
2024/04/23 02:24:04;;;;;;;2.42;2.08;;;7.40;53.00;9.20;102065.00;;;;5312149;26;20224;-77
2024/04/23 02:26:30;;;;;;;3.00;2.10;;;7.40;53.00;9.20;102078.00;;;;5326076;26;20274;-77
2024/04/23 02:28:59;;;;;;;3.45;1.85;;;7.30;53.00;9.10;102075.00;;;;5314648;26;20248;-77
2024/04/23 02:31:25;;;;;;;3.70;2.20;;;7.30;53.00;9.10;102062.00;;;;5314263;26;20314;-77
2024/04/23 02:33:56;;;;;;;3.08;2.30;;;7.30;53.10;9.10;102071.00;;;;5328284;26;20235;-77
2024/04/23 02:36:22;;;;;;;2.72;2.00;;;7.30;53.20;9.10;102062.00;;;;5319923;26;20236;-77
2024/04/23 02:38:51;;;;;;;4.43;2.10;;;7.30;53.20;9.10;102068.00;;;;5314408;26;20311;-77
2024/04/23 02:41:17;;;;;;;2.55;2.05;;;7.30;53.30;9.10;102069.00;;;;5327375;26;20231;-78
2024/04/23 02:43:45;;;;;;;3.08;2.35;;;7.20;53.30;9.10;102069.00;;;;5334966;26;20345;-77
2024/04/23 02:46:11;;;;;;;4.25;2.67;;;7.30;53.40;9.10;102071.00;;;;5320453;26;20383;-77
2024/04/23 02:48:40;;;;;;;3.45;2.40;;;7.20;53.40;9.00;102064.00;;;;5326212;26;20254;-77
2024/04/23 02:51:08;;;;;;;3.03;2.33;;;7.20;53.40;9.00;102062.00;;;;5332012;26;20227;-77
2024/04/23 02:53:37;;;;;;;3.88;2.38;;;7.20;53.50;9.00;102067.00;;;;5332234;26;20235;-77
2024/04/23 02:56:03;;;;;;;3.63;2.50;;;7.20;53.60;9.00;102073.00;;;;5324960;26;20236;-77
2024/04/23 02:58:32;;;;;;;3.13;2.15;;;7.20;53.70;9.00;102072.00;;;;5335734;26;20274;-78
2024/04/23 03:00:58;;;;;;;3.28;2.25;;;7.20;53.80;9.00;102077.00;;;;5325480;26;20343;-77
2024/04/23 03:03:27;;;;;;;3.10;2.15;;;7.20;53.80;9.00;102071.00;;;;5328409;26;20279;-78
2024/04/23 03:05:53;;;;;;;2.75;2.17;;;7.20;53.80;9.00;102059.00;;;;5338202;26;20351;-78
2024/04/23 03:08:24;;;;;;;2.63;2.00;;;7.10;53.80;8.90;102060.00;;;;5317166;26;20738;-78
2024/04/23 03:10:50;;;;;;;3.67;2.45;;;7.10;53.80;8.90;102062.00;;;;5317821;26;20232;-77
2024/04/23 03:13:19;;;;;;;2.15;1.65;;;7.10;53.90;8.90;102060.00;;;;5335562;26;20235;-78
2024/04/23 03:15:45;;;;;;;2.92;2.17;;;7.10;53.80;8.90;102063.00;;;;5308359;26;20232;-78
2024/04/23 03:18:13;;;;;;;3.15;2.20;;;7.10;53.80;8.80;102056.00;;;;5329862;26;20244;-77
2024/04/23 03:20:39;;;;;;;4.35;2.42;;;7.00;53.80;8.80;102062.00;;;;5318180;26;20271;-78
2024/04/23 03:23:08;;;;;;;2.47;1.90;;;7.00;53.80;8.80;102051.00;;;;5309997;26;20236;-78
2024/04/23 03:25:36;;;;;;;3.80;1.80;;;7.00;54.00;8.70;102057.00;;;;5336980;26;20357;-78
2024/04/23 03:28:05;;;;;;;2.97;2.17;;;6.90;54.00;8.70;102050.00;;;;5326888;26;20779;-78
2024/04/23 03:30:31;;;;;;;2.45;1.75;;;6.90;54.00;8.70;102053.00;;;;5317912;26;20362;-78
2024/04/23 03:33:00;;;;;;;2.05;1.75;;;6.80;54.10;8.70;102050.00;;;;5330880;26;20737;-77
2024/04/23 03:35:26;;;;;;;2.38;1.85;;;6.80;54.70;8.60;102043.00;;;;5330389;26;20645;-78
2024/04/23 03:37:54;;;;;;;2.95;2.20;;;6.80;54.20;8.60;102049.00;;;;5327964;26;20235;-78
2024/04/23 03:40:20;;;;;;;3.58;2.60;;;6.70;54.30;8.60;102049.00;;;;5320509;26;20571;-77
2024/04/23 03:42:51;;;;;;;4.88;2.78;;;6.70;54.40;8.50;102046.00;;;;5306495;26;20346;-77
2024/04/23 03:45:20;;;;;;;3.95;2.55;;;6.70;54.50;8.50;102047.00;;;;5331814;26;20329;-77
2024/04/23 03:47:48;;;;;;;3.85;2.30;;;6.70;54.60;8.50;102044.00;;;;5313488;26;20233;-78
2024/04/23 03:50:14;;;;;;;4.22;2.20;;;6.70;55.30;8.50;102045.00;;;;5340286;26;20328;-77
2024/04/23 03:52:43;;;;;;;4.28;2.78;;;6.70;54.90;8.50;102044.00;;;;5333142;26;20675;-78
2024/04/23 03:55:09;;;;;;;4.90;2.47;;;6.60;55.00;8.50;102044.00;;;;5331813;26;20577;-78
2024/04/23 03:57:38;;;;;;;3.95;2.50;;;6.70;55.00;8.50;102042.00;;;;5315579;26;20353;-77
2024/04/23 04:00:08;;;;;;;3.03;2.40;;;6.70;55.00;8.50;102039.00;;;;5324898;26;20295;-77
2024/04/23 04:08:06;;;;;;;3.90;2.67;;;6.60;55.00;8.40;102034.00;;;;5321359;26;20330;-77
2024/04/23 04:10:34;;;;;;;3.40;2.70;;;6.60;55.00;8.40;102029.00;;;;5318523;26;20329;-77
2024/04/23 04:13:00;;;;;;;3.28;2.47;;;6.60;55.00;8.40;102031.00;;;;5322859;26;20232;-77
2024/04/23 04:15:31;;;;;;;5.53;2.60;;;6.60;55.00;8.40;102039.00;;;;5326984;26;20846;-78
2024/04/23 04:17:57;;;;;;;2.83;2.15;;;6.50;55.00;8.40;102031.00;;;;5305592;26;20245;-78
2024/04/23 04:20:26;;;;;;;3.33;2.35;;;6.60;55.10;8.40;102033.00;;;;5316951;26;20369;-78
2024/04/23 04:22:52;;;;;;;4.32;2.65;;;6.50;55.10;8.40;102035.00;;;;5329329;26;20309;-77
2024/04/23 04:25:20;;;;;;;3.25;2.45;;;6.50;55.10;8.40;102029.00;;;;5329107;26;20244;-78
2024/04/23 04:27:46;;;;;;;3.40;2.47;;;6.50;55.10;8.30;102032.00;;;;5319484;26;20682;-78
2024/04/23 04:30:15;;;;;;;4.93;2.55;;;6.50;55.20;8.40;102031.00;;;;5323933;26;20240;-78
2024/04/23 04:32:44;;;;;;;3.28;2.53;;;6.50;55.30;8.30;102028.00;;;;5311570;26;20239;-78
2024/04/23 04:35:12;;;;;;;3.05;2.58;;;6.50;55.30;8.30;102029.00;;;;5332792;26;20235;-78
2024/04/23 04:37:38;;;;;;;4.50;3.15;;;6.40;55.20;8.30;102027.00;;;;5335294;26;20329;-78
2024/04/23 04:40:08;;;;;;;4.00;2.97;;;6.40;55.30;8.30;102032.00;;;;5325474;26;20764;-78
2024/04/23 04:42:34;;;;;;;3.50;2.50;;;6.40;55.30;8.30;102035.00;;;;5318953;26;20227;-78
2024/04/23 04:45:03;;;;;;;4.47;3.03;;;6.40;55.40;8.30;102043.00;;;;5336375;26;20235;-78
2024/04/23 04:47:29;;;;;;;5.97;2.78;;;6.40;55.40;8.20;102033.00;;;;5319622;26;20344;-78
2024/04/23 04:50:00;;;;;;;3.65;2.88;;;6.40;55.40;8.20;102034.00;;;;5312235;26;20240;-78
2024/04/23 04:52:26;;;;;;;5.28;2.90;;;6.30;55.40;8.20;102038.00;;;;5329327;26;20235;-75
2024/04/23 04:54:55;;;;;;;4.63;3.08;;;6.30;55.50;8.20;102033.00;;;;5326688;26;20695;-76
2024/04/23 04:57:21;;;;;;;3.60;2.95;;;6.30;55.60;8.20;102038.00;;;;5333737;26;20333;-76
2024/04/23 04:59:49;;;;;;;4.97;2.80;;;6.30;55.70;8.30;102041.00;;;;5327026;26;20240;-75
2024/04/23 05:02:15;;;;;;;4.93;3.42;;;6.30;55.80;8.30;102035.00;;;;5328403;26;20762;-75
2024/04/23 05:04:44;;;;;;;4.18;3.05;;;6.30;56.00;8.30;102043.00;;;;5342430;26;20560;-75
2024/04/23 05:07:12;;;;;;;4.45;3.40;;;6.40;56.10;8.30;102035.00;;;;5345831;26;20320;-75
2024/04/23 05:09:42;;;;;;;6.45;3.72;;;6.30;56.20;8.40;102030.00;;;;5333032;26;20239;-75
2024/04/23 05:12:08;;;;;;;6.53;4.35;;;6.40;56.30;8.40;102030.00;;;;5321185;26;20228;-75
2024/04/23 05:14:37;;;;;;;4.35;3.40;;;6.40;56.50;8.40;102030.00;;;;5326799;26;20724;-76
2024/04/23 05:17:03;;;;;;;4.90;3.83;;;6.40;56.60;8.50;102034.00;;;;5325464;26;20231;-76
2024/04/23 05:19:32;;;;;;;6.43;3.50;;;6.50;56.70;8.50;102026.00;;;;5325204;26;20244;-78
2024/04/23 05:21:58;;;;;;;5.68;4.28;;;6.50;56.70;8.60;102021.00;;;;4596088;26;10000566;-77
2024/04/23 05:24:29;;;;;;;5.68;3.85;;;6.60;56.70;8.60;102028.00;;;;5309759;26;20240;-77
2024/04/23 05:26:55;;;;;;;5.28;3.90;;;6.70;56.80;8.70;102030.00;;;;5316302;26;20315;-76
2024/04/23 05:29:24;;;;;;;5.15;3.53;;;6.70;56.80;8.80;102029.00;;;;5312995;26;20610;-76
2024/04/23 05:34:37;;;;;;;6.15;3.75;;;6.90;57.00;8.90;102027.00;;;;5327266;26;20278;-76
2024/04/23 05:37:06;;;;;;;5.65;4.13;;;6.90;57.00;9.00;102035.00;;;;5339010;26;20359;-76
2024/04/23 05:39:38;;;;;;;4.88;3.60;;;7.00;57.00;9.00;102033.00;;;;5328228;26;20569;-77
2024/04/23 05:42:07;;;;;;;4.75;3.70;;;7.10;57.60;9.10;102031.00;;;;5328975;26;20349;-77
2024/04/23 05:44:35;;;;;;;5.53;4.43;;;7.20;57.00;9.20;102030.00;;;;5328476;26;20231;-77
2024/04/23 05:47:04;;;;;;;5.38;4.60;;;7.20;57.10;9.30;102030.00;;;;5319112;26;20352;-76
2024/04/23 05:50:28;;;;;;;6.82;4.45;;;7.30;57.10;9.30;102034.00;;;;5312472;26;20232;-77
2024/04/23 05:53:53;;;;;;;6.25;4.22;;;7.40;57.30;9.40;102039.00;;;;5335325;26;20357;-76
2024/04/23 05:56:24;;;;;;;5.80;4.45;;;7.50;57.10;9.50;102030.00;;;;5321619;26;20243;-75
2024/04/23 05:58:50;;;;;;;6.20;5.07;;;7.60;56.80;9.60;102029.00;;;;5333336;26;20232;-76
2024/04/23 06:01:19;;;;;;;5.82;4.95;;;7.70;56.80;9.70;102038.00;;;;5324965;26;21048;-77
2024/04/23 06:03:45;;;;;;;6.90;4.70;;;7.70;56.70;9.80;102038.00;;;;5312175;26;20232;-77
2024/04/23 06:06:13;;;;;;;6.53;5.20;;;7.80;56.80;9.90;102045.00;;;;5335166;26;20336;-76
2024/04/23 06:08:42;;;;;;;5.95;4.75;;;7.90;56.80;10.00;102044.00;;;;5340454;26;20374;-77
2024/04/23 06:11:08;;;;;;;5.93;4.82;;;8.00;56.80;10.00;102042.00;;;;5316159;26;20243;-77
2024/04/23 06:13:39;;;;;;;6.53;5.45;;;8.10;56.70;10.10;102039.00;;;;5324156;26;20304;-78
2024/04/23 06:16:09;;;;;;;7.13;5.05;;;8.20;56.70;10.20;102049.00;;;;5307573;26;20310;-77
2024/04/23 06:18:37;;;;;;;7.15;5.82;;;8.20;56.60;10.30;102042.00;;;;5325704;26;20235;-77
2024/04/23 06:21:04;;;;;;;7.55;5.47;;;8.30;56.60;10.40;102050.00;;;;5313045;26;20731;-78
2024/04/23 06:23:32;;;;;;;7.25;5.40;;;8.40;56.50;10.50;102051.00;;;;5331415;26;20572;-78
2024/04/23 06:25:58;;;;;;;6.63;5.15;;;8.50;56.40;10.50;102050.00;;;;5307273;26;20229;-77
2024/04/23 06:28:27;;;;;;;6.32;5.18;;;8.60;56.40;10.70;102048.00;;;;5330098;26;20336;-77
2024/04/23 06:30:55;;;;;;;7.47;5.50;;;8.70;56.30;10.70;102040.00;;;;5329847;26;20696;-77
2024/04/23 06:33:24;;;;;;;5.68;4.97;;;8.80;56.30;10.80;102048.00;;;;5311202;26;20278;-78
2024/04/23 06:35:52;;;;;;;6.45;5.03;;;8.90;56.20;10.90;102040.00;;;;5330643;26;20232;-78
2024/04/23 06:38:20;;;;;;;6.80;5.25;;;8.90;56.20;11.00;102044.00;;;;5323276;26;20243;-78
2024/04/23 06:40:50;;;;;;;6.55;5.07;;;9.10;56.20;11.10;102042.00;;;;5326549;26;20227;-77
2024/04/23 06:43:18;;;;;;;6.13;5.10;;;9.10;56.10;11.20;102042.00;;;;5337189;26;20240;-78
2024/04/23 06:45:45;;;;;;;5.72;4.78;;;9.20;56.00;11.30;102042.00;;;;5307212;26;20288;-78
2024/04/23 06:48:17;;;;;;;5.97;5.38;;;9.30;56.00;11.40;102043.00;;;;5312051;26;20776;-78
2024/04/23 06:50:43;;;;;;;7.18;5.85;;;9.50;56.00;11.50;102038.00;;;;5310124;26;20363;-78
2024/04/23 06:53:11;;;;;;;6.20;5.18;;;9.60;55.90;11.60;102044.00;;;;5338465;26;20357;-79
2024/04/23 06:55:37;;;;;;;5.93;4.90;;;9.60;55.70;11.70;102035.00;;;;5315368;26;20345;-78
2024/04/23 06:58:06;;;;;;;6.43;4.93;;;9.70;55.60;11.80;102031.00;;;;5323951;26;20236;-77
2024/04/23 07:00:32;;;;;;;6.28;5.18;;;9.80;55.50;11.90;102019.00;;;;5307662;26;20412;-77
2024/04/23 07:03:05;;;;;;;5.88;4.63;;;9.90;55.40;12.00;102027.00;;;;5307263;26;20252;-78
2024/04/23 07:05:36;;;;;;;5.38;4.53;;;10.00;55.30;12.00;102025.00;;;;5318401;26;20389;-78
2024/04/23 07:08:02;;;;;;;5.68;3.92;;;10.10;55.10;12.20;102023.00;;;;5319470;26;20344;-78
2024/04/23 07:10:31;;;;;;;4.93;4.15;;;10.20;54.80;12.20;102021.00;;;;5324919;26;20350;-77
2024/04/23 07:12:57;;;;;;;5.15;3.90;;;10.30;54.80;12.30;102025.00;;;;5317098;26;20260;-77
2024/04/23 07:15:25;;;;;;;5.68;4.80;;;10.40;54.70;12.40;102012.00;;;;5306544;26;20345;-77
2024/04/23 07:17:51;;;;;;;5.05;4.10;;;10.40;54.50;12.50;102032.00;;;;5329493;26;20364;-78
2024/04/23 07:20:20;;;;;;;4.90;4.05;;;10.50;54.40;12.60;102035.00;;;;5308709;26;20248;-78
2024/04/23 07:22:49;;;;;;;5.15;4.20;;;10.60;54.20;12.60;102023.00;;;;5313137;26;20750;-78
2024/04/23 07:25:17;;;;;;;5.50;4.38;;;10.70;54.10;12.80;102021.00;;;;5326893;26;20236;-77
2024/04/23 07:27:43;;;;;;;4.50;3.67;;;10.80;54.00;12.90;102024.00;;;;5324536;26;20310;-77
2024/04/23 07:30:12;;;;;;;4.55;4.10;;;10.90;53.90;12.90;102018.00;;;;5305192;26;20568;-77
2024/04/23 07:32:38;;;;;;;4.35;3.90;;;11.00;53.70;13.00;102011.00;;;;5308980;26;20252;-77
2024/04/23 07:35:07;;;;;;;5.10;4.25;;;11.00;53.40;13.10;102004.00;;;;5311495;26;20820;-78
2024/04/23 07:37:33;;;;;;;5.20;3.90;;;11.10;53.30;13.20;102011.00;;;;5343793;26;20336;-78
2024/04/23 07:40:05;;;;;;;5.45;4.00;;;11.20;53.20;13.20;102007.00;;;;5306618;26;20244;-78
2024/04/23 07:42:31;;;;;;;4.25;3.55;;;11.30;52.90;13.40;102008.00;;;;5304349;26;20347;-78
2024/04/23 07:45:00;;;;;;;4.22;3.45;;;11.40;52.70;13.40;102004.00;;;;5309523;26;20782;-78
2024/04/23 07:47:26;;;;;;;3.97;3.50;;;11.50;53.00;13.50;102001.00;;;;5333725;26;20885;-78
2024/04/23 07:49:54;;;;;;;4.68;3.67;;;11.50;52.30;13.50;102003.00;;;;5310739;26;20259;-78
2024/04/23 07:52:20;;;;;;;3.67;2.83;;;11.60;52.00;13.60;102011.00;;;;5305730;26;20232;-78
2024/04/23 07:54:51;;;;;;;4.63;3.83;;;11.70;51.90;13.70;102009.00;;;;5312391;26;20339;-78
2024/04/23 07:57:20;;;;;;;4.75;3.20;;;11.80;51.80;13.70;102008.00;;;;5320980;26;20235;-78
2024/04/23 07:59:49;;;;;;;4.20;3.25;;;11.80;51.60;13.80;102007.00;;;;5317807;26;20577;-79
2024/04/23 08:02:16;;;;;;;6.13;3.30;;;11.90;51.60;13.90;102009.00;;;;5319791;26;20295;-79
2024/04/23 08:04:44;;;;;;;3.97;2.97;;;12.00;51.70;14.00;102005.00;;;;5332291;26;20279;-78
2024/04/23 08:07:10;;;;;;;4.75;3.25;;;12.10;51.30;14.00;102004.00;;;;5334706;26;20254;-76
2024/04/23 08:09:39;;;;;;;4.85;3.05;;;12.10;51.10;14.10;102000.00;;;;5306187;26;20275;-77
2024/04/23 08:12:06;;;;;;;4.13;3.03;;;12.20;51.00;14.20;101997.00;;;;5304527;26;20300;-78
2024/04/23 08:14:37;;;;;;;3.60;2.78;;;12.30;50.90;14.20;101986.00;;;;5312432;26;20239;-79
2024/04/23 08:17:03;;;;;;;3.85;2.75;;;12.40;50.90;14.40;101998.00;;;;5321342;26;20429;-78
2024/04/23 08:19:31;;;;;;;4.25;3.15;;;12.40;50.90;14.50;101990.00;;;;5324436;26;20738;-78
2024/04/23 08:21:57;;;;;;;4.07;2.90;;;12.50;50.80;14.60;101990.00;;;;5313918;26;20339;-78
2024/04/23 08:24:26;;;;;;;4.18;3.25;;;12.60;50.40;14.70;101989.00;;;;5335340;26;20765;-78
2024/04/23 08:26:52;;;;;;;3.63;3.17;;;12.70;50.30;14.80;101986.00;;;;5321532;26;20355;-78
2024/04/23 08:29:21;;;;;;;6.32;3.33;;;12.80;50.50;14.90;101993.00;;;;5317009;26;20731;-77
2024/04/23 08:31:50;;;;;;;3.80;3.40;;;12.90;50.30;15.00;101987.00;;;;5320614;26;20231;-78
2024/04/23 08:34:18;;;;;;;3.42;3.13;;;13.00;50.10;15.10;101990.00;;;;5332002;26;20298;-78
2024/04/23 08:36:44;;;;;;;4.10;3.53;;;13.10;50.10;15.30;101983.00;;;;5324563;26;20389;-78
2024/04/23 08:39:13;;;;;;;3.92;3.53;;;13.20;50.00;15.40;101989.00;;;;5320993;26;20721;-78
2024/04/23 08:41:41;;;;;;;4.22;3.40;;;13.30;49.80;15.50;101982.00;;;;5328495;26;20248;-78
2024/04/23 08:44:12;;;;;;;4.32;3.13;;;13.50;49.70;15.70;101988.00;;;;5308116;26;20660;-78
2024/04/23 08:46:40;;;;;;;3.25;2.95;;;13.60;49.60;15.80;101972.00;;;;5334796;26;20721;-78
2024/04/23 08:49:12;;;;;;;5.13;3.10;;;13.80;49.50;15.90;101976.00;;;;5314945;26;20266;-78
2024/04/23 08:51:38;;;;;;;5.03;2.97;;;13.90;49.40;16.10;101973.00;;;;5316928;26;20376;-78
2024/04/23 08:54:08;;;;;;;4.95;3.35;;;14.10;49.50;16.20;101983.00;;;;5323685;26;20338;-78
2024/04/23 08:56:43;;;;;;;3.20;2.28;;;14.20;48.90;16.20;101975.00;;;;5323089;26;20235;-79
2024/04/23 08:59:15;;;;;;;2.90;2.05;;;14.30;48.50;16.20;101981.00;;;;5307888;26;20428;-79
2024/04/23 09:01:48;;;;;;;2.47;2.28;;;14.40;48.10;16.20;101975.00;;;;5328310;26;20664;-78
2024/04/23 09:04:20;;;;;;;3.88;2.20;;;14.40;47.60;16.10;101971.00;;;;5328346;26;20243;-78
2024/04/23 09:06:48;;;;;;;2.90;2.28;;;14.40;47.20;16.10;101976.00;;;;5322494;26;20774;-78
2024/04/23 09:09:21;;;;;;;2.60;2.40;;;14.40;46.80;16.00;101966.00;;;;5325015;26;20270;-78
2024/04/23 09:11:49;;;;;;;2.40;2.10;;;14.40;46.60;16.00;101961.00;;;;5326274;26;20738;-78
2024/04/23 09:14:18;;;;;;;3.17;1.85;;;14.30;46.20;16.00;101966.00;;;;5324029;26;20336;-78
2024/04/23 09:16:44;;;;;;;3.25;1.98;;;14.30;46.20;15.90;101962.00;;;;5344622;26;20262;-78
2024/04/23 09:19:13;;;;;;;3.78;1.85;;;14.20;46.00;15.90;101964.00;;;;5326418;26;20243;-78
2024/04/23 09:21:42;;;;;;;4.32;2.03;;;14.20;46.10;15.80;101958.00;;;;5333960;26;20235;-78
2024/04/23 09:24:11;;;;;;;2.70;2.03;;;14.10;45.80;15.90;101945.00;;;;5331597;26;20235;-78
2024/04/23 09:26:38;;;;;;;4.40;2.08;;;14.10;46.00;15.90;101942.00;;;;5340691;26;20228;-77
2024/04/23 09:29:08;;;;;;;2.58;1.80;;;14.10;46.00;15.80;101944.00;;;;5313026;26;20275;-78
2024/04/23 09:31:36;;;;;;;2.25;2.03;;;14.00;46.00;15.80;101945.00;;;;5310876;26;20700;-78
2024/04/23 09:34:10;;;;;;;2.55;1.98;;;14.00;45.90;15.80;101938.00;;;;5329120;26;20599;-78
2024/04/23 09:36:38;;;;;;;2.13;1.58;;;14.00;45.60;15.80;101948.00;;;;5327386;26;20351;-78
2024/04/23 09:39:17;;;;;;;3.38;1.70;;;14.00;45.80;15.80;101938.00;;;;5309550;26;20299;-78
2024/04/23 09:41:54;;;;;;;3.40;1.88;;;14.00;45.80;15.80;101924.00;;;;5323343;26;20230;-79
2024/04/23 09:44:23;;;;;;;2.15;1.80;;;14.00;45.80;15.80;101925.00;;;;5327650;26;20235;-78
2024/04/23 09:46:49;;;;;;;2.10;1.90;;;14.00;46.00;15.90;101921.00;;;;5337055;26;20254;-78
2024/04/23 09:49:19;;;;;;;2.63;1.90;;;14.00;45.90;15.90;101926.00;;;;5313814;26;20571;-78
2024/04/23 09:51:47;;;;;;;3.33;2.30;;;14.10;45.80;15.90;101921.00;;;;5311300;26;20240;-78
2024/04/23 09:54:23;;;;;;;2.92;2.28;;;14.10;45.60;15.80;101912.00;;;;5323229;26;20239;-78
2024/04/23 09:57:01;;;;;;;2.72;2.05;;;14.10;45.50;15.90;101917.00;;;;5316910;26;20235;-78
2024/04/23 09:59:29;;;;;;;2.80;2.20;;;14.10;45.60;16.10;101908.00;;;;5330587;26;20236;-79
2024/04/23 10:01:58;;;;;;;3.20;2.33;;;14.20;46.10;16.20;101911.00;;;;5318802;26;20312;-80
2024/04/23 10:04:28;;;;;;;4.53;2.50;;;14.30;46.20;16.30;101906.00;;;;5337049;26;20354;-79
2024/04/23 10:06:56;;;;;;;4.63;2.38;;;14.40;46.40;16.40;101910.00;;;;5313530;26;20232;-79
2024/04/23 10:09:32;;;;;;;2.50;2.03;;;14.50;46.10;16.50;101902.00;;;;5331622;26;20271;-80
2024/04/23 10:12:06;;;;;;;2.65;2.08;;;14.70;45.80;16.60;101886.00;;;;5313231;26;20709;-79
2024/04/23 10:14:46;;;;;;;2.35;1.88;;;14.80;45.80;16.60;101901.00;;;;5332468;26;20620;-79
2024/04/23 10:17:23;;;;;;;2.60;1.75;;;14.90;45.30;16.70;101890.00;;;;5326441;26;20231;-79
2024/04/23 10:19:58;;;;;;;2.70;2.00;;;15.00;45.10;16.90;101889.00;;;;5317837;26;20251;-79
2024/04/23 10:22:26;;;;;;;2.78;2.00;;;15.10;45.10;17.10;101891.00;;;;5324282;26;20251;-78
2024/04/23 10:24:57;;;;;;;3.00;1.80;;;15.20;44.70;17.20;101875.00;;;;5332753;26;20243;-81
2024/04/23 10:27:26;;;;;;;2.67;1.83;;;15.40;44.90;17.30;101872.00;;;;5336358;26;20894;-80
2024/04/23 10:29:57;;;;;;;2.40;1.67;;;15.50;44.90;17.50;101884.00;;;;5318652;26;20255;-79
2024/04/23 10:32:26;;;;;;;1.98;1.70;;;15.70;44.90;17.50;101886.00;;;;5330143;26;20317;-81
2024/04/23 10:34:58;;;;;;;1.83;1.50;;;15.80;44.10;17.50;101885.00;;;;5324811;26;20239;-80
2024/04/23 10:37:29;;;;;;;2.33;1.63;;;15.90;43.90;17.40;101885.00;;;;5312632;26;20387;-80
2024/04/23 10:40:01;;;;;;;2.60;2.00;;;15.90;43.40;17.40;101873.00;;;;5323635;26;20227;-79
2024/04/23 10:42:30;;;;;;;3.70;2.28;;;15.90;43.30;17.40;101873.00;;;;5333687;26;20822;-80
2024/04/23 10:44:59;;;;;;;1.75;1.60;;;16.00;43.30;17.50;101874.00;;;;5337452;26;20613;-80
2024/04/23 10:47:28;;;;;;;2.30;2.10;;;16.00;43.10;17.40;101873.00;;;;5336536;26;20555;-80
2024/04/23 10:49:56;;;;;;;2.72;1.90;;;16.00;43.10;17.50;101877.00;;;;5330281;26;20303;-80
2024/04/23 10:52:22;;;;;;;2.53;1.80;;;16.00;42.70;17.50;101869.00;;;;5329723;26;20243;-79
2024/04/23 10:54:52;;;;;;;2.90;1.70;;;16.10;43.10;17.60;101865.00;;;;5340100;26;20231;-79
2024/04/23 10:57:25;;;;;;;2.00;1.77;;;16.10;42.70;17.60;101857.00;;;;5335434;26;20318;-79
2024/04/23 10:59:55;;;;;;;2.50;1.70;;;16.20;42.70;17.70;101845.00;;;;5306317;26;20232;-79
2024/04/23 11:02:25;;;;;;;2.40;2.05;;;16.20;43.10;17.60;101851.00;;;;5318955;26;20240;-79
2024/04/23 11:04:54;;;;;;;2.70;2.15;;;16.30;42.60;17.80;101851.00;;;;5326668;26;20243;-80
2024/04/23 11:07:25;;;;;;;2.78;1.83;;;16.30;42.50;17.80;101845.00;;;;5316480;26;20284;-79
2024/04/23 11:10:00;;;;;;;1.90;1.63;;;16.30;42.30;17.90;101844.00;;;;5335663;26;20366;-79
2024/04/23 11:12:29;;;;;;;2.33;1.73;;;16.40;42.40;17.90;101845.00;;;;5321963;26;20573;-79